sensor_id;sensor_type;location;lat;lon;timestamp;P1;durP1;ratioP1;P2;durP2;ratioP2
18893;SDS011;9579;49.488;8.226;2024-01-10T00:02:15;21.17;;;16.60;;
18893;SDS011;9579;49.488;8.226;2024-01-10T00:05:04;18.23;;;15.53;;
18893;SDS011;9579;49.488;8.226;2024-01-10T00:07:51;21.27;;;16.20;;
18893;SDS011;9579;49.488;8.226;2024-01-10T00:10:39;19.27;;;15.83;;
18893;SDS011;9579;49.488;8.226;2024-01-10T00:13:26;17.67;;;15.10;;
18893;SDS011;9579;49.488;8.226;2024-01-10T00:16:14;20.20;;;16.63;;
18893;SDS011;9579;49.488;8.226;2024-01-10T00:19:01;18.00;;;15.57;;
18893;SDS011;9579;49.488;8.226;2024-01-10T00:21:50;21.50;;;16.93;;
18893;SDS011;9579;49.488;8.226;2024-01-10T00:24:37;19.20;;;15.70;;
18893;SDS011;9579;49.488;8.226;2024-01-10T00:27:24;21.20;;;16.77;;
18893;SDS011;9579;49.488;8.226;2024-01-10T00:30:11;21.67;;;16.60;;
18893;SDS011;9579;49.488;8.226;2024-01-10T00:32:58;20.33;;;16.40;;
18893;SDS011;9579;49.488;8.226;2024-01-10T00:35:45;20.00;;;15.90;;
18893;SDS011;9579;49.488;8.226;2024-01-10T00:38:34;23.80;;;17.43;;
18893;SDS011;9579;49.488;8.226;2024-01-10T00:41:21;20.20;;;16.50;;
18893;SDS011;9579;49.488;8.226;2024-01-10T00:44:07;18.27;;;16.10;;
18893;SDS011;9579;49.488;8.226;2024-01-10T00:46:54;18.60;;;15.87;;
18893;SDS011;9579;49.488;8.226;2024-01-10T00:49:41;21.50;;;16.90;;
18893;SDS011;9579;49.488;8.226;2024-01-10T00:52:28;20.57;;;16.23;;
18893;SDS011;9579;49.488;8.226;2024-01-10T00:55:17;21.83;;;17.20;;
18893;SDS011;9579;49.488;8.226;2024-01-10T00:58:04;21.63;;;17.53;;
18893;SDS011;9579;49.488;8.226;2024-01-10T01:00:51;19.23;;;16.30;;
18893;SDS011;9579;49.488;8.226;2024-01-10T01:03:38;21.07;;;17.60;;
18893;SDS011;9579;49.488;8.226;2024-01-10T01:06:25;20.57;;;17.03;;
18893;SDS011;9579;49.488;8.226;2024-01-10T01:09:12;21.87;;;17.53;;
18893;SDS011;9579;49.488;8.226;2024-01-10T01:12:02;21.80;;;17.70;;
18893;SDS011;9579;49.488;8.226;2024-01-10T01:14:49;22.67;;;17.87;;
18893;SDS011;9579;49.488;8.226;2024-01-10T01:17:36;21.60;;;17.87;;
18893;SDS011;9579;49.488;8.226;2024-01-10T01:20:23;22.87;;;18.97;;
18893;SDS011;9579;49.488;8.226;2024-01-10T01:23:10;23.07;;;18.20;;
18893;SDS011;9579;49.488;8.226;2024-01-10T01:25:57;24.77;;;18.77;;
18893;SDS011;9579;49.488;8.226;2024-01-10T01:28:47;23.37;;;18.33;;
18893;SDS011;9579;49.488;8.226;2024-01-10T01:31:34;22.97;;;18.23;;
18893;SDS011;9579;49.488;8.226;2024-01-10T01:34:21;21.43;;;17.33;;
18893;SDS011;9579;49.488;8.226;2024-01-10T01:37:08;23.77;;;18.20;;
18893;SDS011;9579;49.488;8.226;2024-01-10T01:39:55;21.67;;;17.73;;
18893;SDS011;9579;49.488;8.226;2024-01-10T01:42:43;24.23;;;19.47;;
18893;SDS011;9579;49.488;8.226;2024-01-10T01:45:32;21.33;;;18.40;;
18893;SDS011;9579;49.488;8.226;2024-01-10T01:48:19;21.67;;;17.70;;
18893;SDS011;9579;49.488;8.226;2024-01-10T01:51:07;21.10;;;18.10;;
18893;SDS011;9579;49.488;8.226;2024-01-10T01:53:56;22.67;;;18.87;;
18893;SDS011;9579;49.488;8.226;2024-01-10T01:56:44;23.10;;;18.50;;
18893;SDS011;9579;49.488;8.226;2024-01-10T01:59:32;23.50;;;18.77;;
18893;SDS011;9579;49.488;8.226;2024-01-10T02:02:20;24.73;;;19.60;;
18893;SDS011;9579;49.488;8.226;2024-01-10T02:05:09;23.27;;;18.70;;
18893;SDS011;9579;49.488;8.226;2024-01-10T02:07:56;21.87;;;18.43;;
18893;SDS011;9579;49.488;8.226;2024-01-10T02:10:43;23.03;;;18.87;;
18893;SDS011;9579;49.488;8.226;2024-01-10T02:13:30;24.20;;;19.30;;
18893;SDS011;9579;49.488;8.226;2024-01-10T02:16:18;23.07;;;19.43;;
18893;SDS011;9579;49.488;8.226;2024-01-10T02:19:18;22.33;;;18.50;;
18893;SDS011;9579;49.488;8.226;2024-01-10T02:27:18;23.40;;;19.80;;
18893;SDS011;9579;49.488;8.226;2024-01-10T02:30:22;24.00;;;19.30;;
18893;SDS011;9579;49.488;8.226;2024-01-10T02:35:47;23.53;;;19.40;;
18893;SDS011;9579;49.488;8.226;2024-01-10T02:38:48;25.40;;;19.90;;
18893;SDS011;9579;49.488;8.226;2024-01-10T02:41:50;25.87;;;19.93;;
18893;SDS011;9579;49.488;8.226;2024-01-10T02:44:35;24.27;;;19.43;;
18893;SDS011;9579;49.488;8.226;2024-01-10T02:47:25;25.63;;;20.10;;
18893;SDS011;9579;49.488;8.226;2024-01-10T02:55:26;24.33;;;19.63;;
18893;SDS011;9579;49.488;8.226;2024-01-10T02:58:16;25.33;;;19.97;;
18893;SDS011;9579;49.488;8.226;2024-01-10T03:01:09;25.10;;;19.63;;
18893;SDS011;9579;49.488;8.226;2024-01-10T03:35:01;25.03;;;20.90;;
18893;SDS011;9579;49.488;8.226;2024-01-10T03:37:50;27.17;;;21.57;;
18893;SDS011;9579;49.488;8.226;2024-01-10T03:43:29;24.30;;;19.73;;
18893;SDS011;9579;49.488;8.226;2024-01-10T03:46:38;27.43;;;21.07;;
18893;SDS011;9579;49.488;8.226;2024-01-10T04:02:59;25.20;;;20.70;;
18893;SDS011;9579;49.488;8.226;2024-01-10T04:05:56;26.93;;;20.33;;
18893;SDS011;9579;49.488;8.226;2024-01-10T04:08:44;26.47;;;21.27;;
18893;SDS011;9579;49.488;8.226;2024-01-10T04:11:32;26.40;;;21.40;;
18893;SDS011;9579;49.488;8.226;2024-01-10T04:14:15;28.13;;;22.00;;
18893;SDS011;9579;49.488;8.226;2024-01-10T04:27:22;27.93;;;21.47;;
18893;SDS011;9579;49.488;8.226;2024-01-10T04:30:11;27.13;;;22.10;;
18893;SDS011;9579;49.488;8.226;2024-01-10T05:02:49;29.57;;;23.57;;
18893;SDS011;9579;49.488;8.226;2024-01-10T05:10:54;27.17;;;22.67;;
18893;SDS011;9579;49.488;8.226;2024-01-10T05:13:43;30.00;;;23.47;;
18893;SDS011;9579;49.488;8.226;2024-01-10T05:19:09;28.33;;;22.20;;
18893;SDS011;9579;49.488;8.226;2024-01-10T05:29:56;26.60;;;21.17;;
18893;SDS011;9579;49.488;8.226;2024-01-10T06:34:16;30.07;;;23.60;;
18893;SDS011;9579;49.488;8.226;2024-01-10T07:07:51;30.83;;;24.47;;
18893;SDS011;9579;49.488;8.226;2024-01-10T07:13:19;31.67;;;24.70;;
18893;SDS011;9579;49.488;8.226;2024-01-10T07:16:11;29.37;;;23.70;;
18893;SDS011;9579;49.488;8.226;2024-01-10T07:22:44;30.27;;;24.40;;
18893;SDS011;9579;49.488;8.226;2024-01-10T07:25:47;29.87;;;23.43;;
18893;SDS011;9579;49.488;8.226;2024-01-10T07:33:50;33.03;;;24.70;;
18893;SDS011;9579;49.488;8.226;2024-01-10T07:49:43;31.50;;;25.00;;
18893;SDS011;9579;49.488;8.226;2024-01-10T07:55:17;34.60;;;26.47;;
18893;SDS011;9579;49.488;8.226;2024-01-10T07:58:00;36.93;;;27.87;;
18893;SDS011;9579;49.488;8.226;2024-01-10T08:00:51;33.03;;;26.03;;
18893;SDS011;9579;49.488;8.226;2024-01-10T08:03:39;33.27;;;26.50;;
18893;SDS011;9579;49.488;8.226;2024-01-10T08:06:43;33.87;;;25.77;;
18893;SDS011;9579;49.488;8.226;2024-01-10T08:09:31;31.80;;;24.80;;
18893;SDS011;9579;49.488;8.226;2024-01-10T08:12:23;31.87;;;25.50;;
18893;SDS011;9579;49.488;8.226;2024-01-10T08:15:48;31.17;;;24.03;;
18893;SDS011;9579;49.488;8.226;2024-01-10T08:18:39;32.30;;;24.90;;
18893;SDS011;9579;49.488;8.226;2024-01-10T08:21:27;29.77;;;24.40;;
18893;SDS011;9579;49.488;8.226;2024-01-10T08:24:16;30.83;;;24.63;;
18893;SDS011;9579;49.488;8.226;2024-01-10T08:27:03;28.87;;;23.17;;
18893;SDS011;9579;49.488;8.226;2024-01-10T08:29:50;28.47;;;22.27;;
18893;SDS011;9579;49.488;8.226;2024-01-10T08:32:37;30.07;;;25.50;;
18893;SDS011;9579;49.488;8.226;2024-01-10T08:35:25;30.23;;;24.80;;
18893;SDS011;9579;49.488;8.226;2024-01-10T08:38:12;29.23;;;24.63;;
18893;SDS011;9579;49.488;8.226;2024-01-10T08:41:06;32.63;;;25.60;;
18893;SDS011;9579;49.488;8.226;2024-01-10T08:43:54;30.13;;;24.27;;
18893;SDS011;9579;49.488;8.226;2024-01-10T08:46:41;29.87;;;24.10;;
18893;SDS011;9579;49.488;8.226;2024-01-10T08:49:28;29.60;;;24.30;;
18893;SDS011;9579;49.488;8.226;2024-01-10T08:52:15;30.77;;;24.87;;
18893;SDS011;9579;49.488;8.226;2024-01-10T08:55:02;30.20;;;24.90;;
18893;SDS011;9579;49.488;8.226;2024-01-10T08:57:51;27.83;;;23.47;;
18893;SDS011;9579;49.488;8.226;2024-01-10T09:00:38;32.00;;;25.60;;
18893;SDS011;9579;49.488;8.226;2024-01-10T09:03:25;28.47;;;23.77;;
18893;SDS011;9579;49.488;8.226;2024-01-10T09:06:12;23.00;;;19.47;;
18893;SDS011;9579;49.488;8.226;2024-01-10T09:08:59;28.53;;;23.87;;
18893;SDS011;9579;49.488;8.226;2024-01-10T09:11:46;30.27;;;24.23;;
18893;SDS011;9579;49.488;8.226;2024-01-10T09:14:35;31.50;;;24.37;;
18893;SDS011;9579;49.488;8.226;2024-01-10T09:17:22;28.50;;;23.93;;
18893;SDS011;9579;49.488;8.226;2024-01-10T09:20:10;29.70;;;24.33;;
18893;SDS011;9579;49.488;8.226;2024-01-10T09:22:57;28.80;;;24.33;;
18893;SDS011;9579;49.488;8.226;2024-01-10T09:25:45;30.00;;;23.67;;
18893;SDS011;9579;49.488;8.226;2024-01-10T09:28:32;28.37;;;23.83;;
18893;SDS011;9579;49.488;8.226;2024-01-10T09:31:20;31.27;;;24.70;;
18893;SDS011;9579;49.488;8.226;2024-01-10T09:34:07;27.57;;;23.53;;
18893;SDS011;9579;49.488;8.226;2024-01-10T09:36:54;27.97;;;23.77;;
18893;SDS011;9579;49.488;8.226;2024-01-10T09:39:41;30.37;;;23.77;;
18893;SDS011;9579;49.488;8.226;2024-01-10T09:42:29;28.17;;;22.97;;
18893;SDS011;9579;49.488;8.226;2024-01-10T09:45:18;26.17;;;22.70;;
18893;SDS011;9579;49.488;8.226;2024-01-10T09:48:08;25.13;;;21.23;;
18893;SDS011;9579;49.488;8.226;2024-01-10T09:50:55;26.37;;;22.87;;
18893;SDS011;9579;49.488;8.226;2024-01-10T09:53:44;27.40;;;23.37;;
18893;SDS011;9579;49.488;8.226;2024-01-10T09:56:35;27.40;;;22.63;;
18893;SDS011;9579;49.488;8.226;2024-01-10T09:59:22;25.53;;;21.80;;
18893;SDS011;9579;49.488;8.226;2024-01-10T10:02:09;26.80;;;22.80;;
18893;SDS011;9579;49.488;8.226;2024-01-10T10:05:00;26.40;;;23.50;;
18893;SDS011;9579;49.488;8.226;2024-01-10T10:07:51;23.53;;;20.87;;
18893;SDS011;9579;49.488;8.226;2024-01-10T10:10:39;22.57;;;19.80;;
18893;SDS011;9579;49.488;8.226;2024-01-10T10:13:30;26.57;;;21.37;;
18893;SDS011;9579;49.488;8.226;2024-01-10T10:16:22;25.13;;;21.73;;
18893;SDS011;9579;49.488;8.226;2024-01-10T10:19:10;23.20;;;20.50;;
18893;SDS011;9579;49.488;8.226;2024-01-10T10:22:01;24.00;;;21.50;;
18893;SDS011;9579;49.488;8.226;2024-01-10T10:24:54;23.03;;;20.63;;
18893;SDS011;9579;49.488;8.226;2024-01-10T10:27:41;23.20;;;20.37;;
18893;SDS011;9579;49.488;8.226;2024-01-10T10:30:29;24.90;;;22.20;;
18893;SDS011;9579;49.488;8.226;2024-01-10T10:33:17;26.90;;;24.10;;
18893;SDS011;9579;49.488;8.226;2024-01-10T10:36:05;25.40;;;22.07;;
18893;SDS011;9579;49.488;8.226;2024-01-10T10:38:54;23.00;;;20.43;;
18893;SDS011;9579;49.488;8.226;2024-01-10T10:41:41;21.23;;;18.93;;
18893;SDS011;9579;49.488;8.226;2024-01-10T10:44:29;21.53;;;19.23;;
18893;SDS011;9579;49.488;8.226;2024-01-10T10:47:22;21.67;;;19.33;;
18893;SDS011;9579;49.488;8.226;2024-01-10T10:50:13;21.90;;;19.50;;
18893;SDS011;9579;49.488;8.226;2024-01-10T10:53:08;20.90;;;17.90;;
18893;SDS011;9579;49.488;8.226;2024-01-10T10:55:58;22.20;;;19.17;;
18893;SDS011;9579;49.488;8.226;2024-01-10T10:58:47;22.67;;;19.97;;
18893;SDS011;9579;49.488;8.226;2024-01-10T11:01:35;24.23;;;21.20;;
18893;SDS011;9579;49.488;8.226;2024-01-10T11:04:23;25.37;;;21.47;;
18893;SDS011;9579;49.488;8.226;2024-01-10T11:07:11;22.73;;;19.67;;
18893;SDS011;9579;49.488;8.226;2024-01-10T11:09:58;21.43;;;18.80;;
18893;SDS011;9579;49.488;8.226;2024-01-10T11:12:53;20.13;;;18.00;;
18893;SDS011;9579;49.488;8.226;2024-01-10T11:15:57;22.77;;;19.93;;
18893;SDS011;9579;49.488;8.226;2024-01-10T11:18:55;20.33;;;18.00;;
18893;SDS011;9579;49.488;8.226;2024-01-10T11:22:10;21.80;;;18.80;;
18893;SDS011;9579;49.488;8.226;2024-01-10T11:25:10;21.83;;;18.60;;
18893;SDS011;9579;49.488;8.226;2024-01-10T11:28:03;18.87;;;16.27;;
18893;SDS011;9579;49.488;8.226;2024-01-10T11:30:53;19.40;;;17.30;;
18893;SDS011;9579;49.488;8.226;2024-01-10T11:33:42;20.63;;;17.93;;
18893;SDS011;9579;49.488;8.226;2024-01-10T11:36:35;19.65;;;17.55;;
18893;SDS011;9579;49.488;8.226;2024-01-10T11:39:23;19.00;;;16.87;;
18893;SDS011;9579;49.488;8.226;2024-01-10T11:42:13;19.53;;;16.83;;
18893;SDS011;9579;49.488;8.226;2024-01-10T11:45:17;19.63;;;17.53;;
18893;SDS011;9579;49.488;8.226;2024-01-10T11:48:29;21.07;;;17.87;;
18893;SDS011;9579;49.488;8.226;2024-01-10T11:51:13;20.20;;;17.47;;
18893;SDS011;9579;49.488;8.226;2024-01-10T11:54:02;21.23;;;19.03;;
18893;SDS011;9579;49.488;8.226;2024-01-10T11:56:54;21.20;;;18.50;;
18893;SDS011;9579;49.488;8.226;2024-01-10T11:59:43;21.20;;;18.90;;
18893;SDS011;9579;49.488;8.226;2024-01-10T12:02:32;18.93;;;16.87;;
18893;SDS011;9579;49.488;8.226;2024-01-10T12:05:20;22.13;;;19.77;;
18893;SDS011;9579;49.488;8.226;2024-01-10T12:08:08;20.87;;;17.43;;
18893;SDS011;9579;49.488;8.226;2024-01-10T12:13:30;19.73;;;17.60;;
18893;SDS011;9579;49.488;8.226;2024-01-10T12:16:28;18.93;;;16.93;;
18893;SDS011;9579;49.488;8.226;2024-01-10T12:19:27;19.23;;;17.23;;
18893;SDS011;9579;49.488;8.226;2024-01-10T12:22:16;21.20;;;18.60;;
18893;SDS011;9579;49.488;8.226;2024-01-10T12:27:35;21.00;;;17.77;;
18893;SDS011;9579;49.488;8.226;2024-01-10T12:30:23;20.20;;;17.70;;
18893;SDS011;9579;49.488;8.226;2024-01-10T12:33:11;18.40;;;16.43;;
18893;SDS011;9579;49.488;8.226;2024-01-10T12:36:03;19.80;;;17.30;;
18893;SDS011;9579;49.488;8.226;2024-01-10T12:38:54;18.50;;;16.60;;
18893;SDS011;9579;49.488;8.226;2024-01-10T12:41:42;19.47;;;17.13;;
18893;SDS011;9579;49.488;8.226;2024-01-10T12:44:31;21.27;;;18.10;;
18893;SDS011;9579;49.488;8.226;2024-01-10T12:55:50;20.77;;;17.73;;
18893;SDS011;9579;49.488;8.226;2024-01-10T12:58:46;22.80;;;19.50;;
18893;SDS011;9579;49.488;8.226;2024-01-10T13:05:01;21.17;;;18.17;;
18893;SDS011;9579;49.488;8.226;2024-01-10T13:07:55;21.33;;;18.53;;
18893;SDS011;9579;49.488;8.226;2024-01-10T13:10:56;20.40;;;17.83;;
18893;SDS011;9579;49.488;8.226;2024-01-10T13:13:48;21.67;;;18.63;;
18893;SDS011;9579;49.488;8.226;2024-01-10T13:16:42;21.63;;;19.43;;
18893;SDS011;9579;49.488;8.226;2024-01-10T13:19:35;21.20;;;18.77;;
18893;SDS011;9579;49.488;8.226;2024-01-10T13:28:06;21.63;;;18.43;;
18893;SDS011;9579;49.488;8.226;2024-01-10T13:30:57;21.07;;;18.77;;
18893;SDS011;9579;49.488;8.226;2024-01-10T13:33:50;19.30;;;17.30;;
18893;SDS011;9579;49.488;8.226;2024-01-10T13:37:11;19.87;;;17.87;;
18893;SDS011;9579;49.488;8.226;2024-01-10T13:40:13;20.03;;;17.93;;
18893;SDS011;9579;49.488;8.226;2024-01-10T13:43:03;20.67;;;18.23;;
18893;SDS011;9579;49.488;8.226;2024-01-10T13:45:54;20.27;;;18.13;;
18893;SDS011;9579;49.488;8.226;2024-01-10T13:52:18;21.03;;;18.73;;
18893;SDS011;9579;49.488;8.226;2024-01-10T13:57:57;21.70;;;18.50;;
18893;SDS011;9579;49.488;8.226;2024-01-10T14:00:46;21.07;;;18.87;;
18893;SDS011;9579;49.488;8.226;2024-01-10T14:03:34;21.17;;;18.97;;
18893;SDS011;9579;49.488;8.226;2024-01-10T14:20:00;19.40;;;17.40;;
18893;SDS011;9579;49.488;8.226;2024-01-10T14:22:48;19.40;;;17.50;;
18893;SDS011;9579;49.488;8.226;2024-01-10T14:25:35;20.23;;;18.03;;
18893;SDS011;9579;49.488;8.226;2024-01-10T14:28:23;20.93;;;18.67;;
18893;SDS011;9579;49.488;8.226;2024-01-10T14:31:10;20.70;;;18.50;;
18893;SDS011;9579;49.488;8.226;2024-01-10T14:33:59;20.58;;;18.50;;
18893;SDS011;9579;49.488;8.226;2024-01-10T14:36:47;21.33;;;19.17;;
18893;SDS011;9579;49.488;8.226;2024-01-10T14:39:34;20.70;;;18.60;;
18893;SDS011;9579;49.488;8.226;2024-01-10T14:42:24;21.97;;;19.73;;
18893;SDS011;9579;49.488;8.226;2024-01-10T14:45:12;20.63;;;18.53;;
18893;SDS011;9579;49.488;8.226;2024-01-10T14:47:59;24.47;;;21.80;;
18893;SDS011;9579;49.488;8.226;2024-01-10T14:50:46;21.90;;;19.23;;
18893;SDS011;9579;49.488;8.226;2024-01-10T14:53:35;20.33;;;18.23;;
18893;SDS011;9579;49.488;8.226;2024-01-10T14:56:22;23.35;;;20.90;;
18893;SDS011;9579;49.488;8.226;2024-01-10T14:59:10;27.97;;;23.87;;
18893;SDS011;9579;49.488;8.226;2024-01-10T15:01:57;27.70;;;24.20;;
18893;SDS011;9579;49.488;8.226;2024-01-10T15:04:44;27.38;;;24.35;;
18893;SDS011;9579;49.488;8.226;2024-01-10T15:07:33;27.90;;;24.90;;
18893;SDS011;9579;49.488;8.226;2024-01-10T15:10:21;26.30;;;22.83;;
18893;SDS011;9579;49.488;8.226;2024-01-10T15:13:08;24.80;;;21.60;;
18893;SDS011;9579;49.488;8.226;2024-01-10T15:15:55;25.40;;;22.70;;
18893;SDS011;9579;49.488;8.226;2024-01-10T15:18:42;25.33;;;22.63;;
18893;SDS011;9579;49.488;8.226;2024-01-10T15:21:30;25.90;;;23.10;;
18893;SDS011;9579;49.488;8.226;2024-01-10T15:24:18;25.50;;;22.10;;
18893;SDS011;9579;49.488;8.226;2024-01-10T15:27:17;26.67;;;23.70;;
18893;SDS011;9579;49.488;8.226;2024-01-10T15:30:05;25.53;;;22.70;;
18893;SDS011;9579;49.488;8.226;2024-01-10T15:33:05;26.37;;;22.40;;
18893;SDS011;9579;49.488;8.226;2024-01-10T15:38:32;25.63;;;21.67;;
18893;SDS011;9579;49.488;8.226;2024-01-10T15:41:19;32.67;;;26.13;;
18893;SDS011;9579;49.488;8.226;2024-01-10T15:44:08;32.53;;;27.53;;
18893;SDS011;9579;49.488;8.226;2024-01-10T15:46:56;37.70;;;27.73;;
18893;SDS011;9579;49.488;8.226;2024-01-10T15:49:44;39.70;;;29.17;;
18893;SDS011;9579;49.488;8.226;2024-01-10T15:55:07;33.67;;;26.33;;
18893;SDS011;9579;49.488;8.226;2024-01-10T15:57:56;31.70;;;24.70;;
18893;SDS011;9579;49.488;8.226;2024-01-10T16:00:45;27.00;;;22.63;;
18893;SDS011;9579;49.488;8.226;2024-01-10T16:03:35;26.80;;;22.30;;
18893;SDS011;9579;49.488;8.226;2024-01-10T16:06:24;25.77;;;22.83;;
18893;SDS011;9579;49.488;8.226;2024-01-10T16:09:13;26.23;;;23.07;;
18893;SDS011;9579;49.488;8.226;2024-01-10T16:12:03;25.53;;;20.97;;
18893;SDS011;9579;49.488;8.226;2024-01-10T16:14:58;24.30;;;20.63;;
18893;SDS011;9579;49.488;8.226;2024-01-10T16:17:56;25.23;;;21.60;;
18893;SDS011;9579;49.488;8.226;2024-01-10T16:20:46;28.07;;;22.70;;
18893;SDS011;9579;49.488;8.226;2024-01-10T16:23:37;25.77;;;21.90;;
18893;SDS011;9579;49.488;8.226;2024-01-10T16:26:26;38.77;;;31.10;;
18893;SDS011;9579;49.488;8.226;2024-01-10T16:29:18;57.17;;;43.10;;
18893;SDS011;9579;49.488;8.226;2024-01-10T16:32:10;40.43;;;33.43;;
18893;SDS011;9579;49.488;8.226;2024-01-10T16:35:23;44.37;;;36.97;;
18893;SDS011;9579;49.488;8.226;2024-01-10T16:38:47;42.67;;;36.07;;
18893;SDS011;9579;49.488;8.226;2024-01-10T16:42:05;38.93;;;32.37;;
18893;SDS011;9579;49.488;8.226;2024-01-10T16:45:26;30.87;;;25.80;;
18893;SDS011;9579;49.488;8.226;2024-01-10T16:48:55;28.17;;;23.87;;
18893;SDS011;9579;49.488;8.226;2024-01-10T16:52:24;27.00;;;22.33;;
18893;SDS011;9579;49.488;8.226;2024-01-10T16:55:11;28.10;;;22.30;;
18893;SDS011;9579;49.488;8.226;2024-01-10T16:58:00;25.77;;;21.23;;
18893;SDS011;9579;49.488;8.226;2024-01-10T17:00:48;27.57;;;23.20;;
18893;SDS011;9579;49.488;8.226;2024-01-10T17:06:14;31.90;;;25.20;;
18893;SDS011;9579;49.488;8.226;2024-01-10T17:09:39;27.77;;;23.77;;
18893;SDS011;9579;49.488;8.226;2024-01-10T17:12:26;26.80;;;22.73;;
18893;SDS011;9579;49.488;8.226;2024-01-10T17:15:23;28.73;;;24.47;;
18893;SDS011;9579;49.488;8.226;2024-01-10T17:18:18;29.07;;;24.70;;
18893;SDS011;9579;49.488;8.226;2024-01-10T17:21:06;30.23;;;24.43;;
18893;SDS011;9579;49.488;8.226;2024-01-10T17:27:26;30.63;;;23.93;;
18893;SDS011;9579;49.488;8.226;2024-01-10T17:30:16;29.70;;;24.63;;
18893;SDS011;9579;49.488;8.226;2024-01-10T17:33:05;28.00;;;23.77;;
18893;SDS011;9579;49.488;8.226;2024-01-10T17:35:56;31.10;;;25.47;;
18893;SDS011;9579;49.488;8.226;2024-01-10T17:39:03;29.57;;;24.73;;
18893;SDS011;9579;49.488;8.226;2024-01-10T17:41:51;30.87;;;25.60;;
18893;SDS011;9579;49.488;8.226;2024-01-10T18:45:56;31.70;;;25.87;;
18893;SDS011;9579;49.488;8.226;2024-01-10T18:48:44;32.03;;;24.93;;
18893;SDS011;9579;49.488;8.226;2024-01-10T19:08:02;30.20;;;23.93;;
18893;SDS011;9579;49.488;8.226;2024-01-10T21:26:46;35.63;;;28.90;;
18893;SDS011;9579;49.488;8.226;2024-01-10T21:29:36;35.80;;;29.20;;
18893;SDS011;9579;49.488;8.226;2024-01-10T21:32:26;33.40;;;27.40;;
18893;SDS011;9579;49.488;8.226;2024-01-10T21:35:16;33.20;;;27.50;;
18893;SDS011;9579;49.488;8.226;2024-01-10T21:38:04;33.23;;;28.07;;
18893;SDS011;9579;49.488;8.226;2024-01-10T21:40:52;33.80;;;27.90;;
18893;SDS011;9579;49.488;8.226;2024-01-10T21:43:43;34.40;;;27.60;;
18893;SDS011;9579;49.488;8.226;2024-01-10T21:46:31;34.67;;;28.53;;
18893;SDS011;9579;49.488;8.226;2024-01-10T21:49:19;35.03;;;27.63;;
18893;SDS011;9579;49.488;8.226;2024-01-10T21:52:06;35.13;;;28.37;;
18893;SDS011;9579;49.488;8.226;2024-01-10T21:54:56;33.70;;;27.57;;
18893;SDS011;9579;49.488;8.226;2024-01-10T22:00:21;34.67;;;27.50;;
18893;SDS011;9579;49.488;8.226;2024-01-10T22:03:11;35.10;;;28.83;;
18893;SDS011;9579;49.488;8.226;2024-01-10T22:14:13;36.90;;;30.10;;
18893;SDS011;9579;49.488;8.226;2024-01-10T22:39:08;38.37;;;30.27;;
18893;SDS011;9579;49.488;8.226;2024-01-10T22:41:57;37.50;;;30.07;;
18893;SDS011;9579;49.488;8.226;2024-01-10T22:47:27;36.73;;;30.80;;
18893;SDS011;9579;49.488;8.226;2024-01-10T22:51:08;37.97;;;29.43;;
18893;SDS011;9579;49.488;8.226;2024-01-10T23:16:48;35.33;;;28.53;;
18893;SDS011;9579;49.488;8.226;2024-01-10T23:19:35;34.97;;;27.97;;
18893;SDS011;9579;49.488;8.226;2024-01-10T23:22:23;35.97;;;28.73;;
18893;SDS011;9579;49.488;8.226;2024-01-10T23:25:10;35.20;;;28.77;;
18893;SDS011;9579;49.488;8.226;2024-01-10T23:27:58;38.03;;;30.00;;
18893;SDS011;9579;49.488;8.226;2024-01-10T23:30:46;37.23;;;30.23;;
18893;SDS011;9579;49.488;8.226;2024-01-10T23:33:35;37.80;;;30.73;;
18893;SDS011;9579;49.488;8.226;2024-01-10T23:36:22;39.57;;;31.67;;
18893;SDS011;9579;49.488;8.226;2024-01-10T23:39:20;36.37;;;30.00;;
18893;SDS011;9579;49.488;8.226;2024-01-10T23:47:52;38.27;;;30.17;;
18893;SDS011;9579;49.488;8.226;2024-01-10T23:50:43;40.67;;;31.53;;
18893;SDS011;9579;49.488;8.226;2024-01-10T23:56:25;39.37;;;30.33;;
18893;SDS011;9579;49.488;8.226;2024-01-10T23:59:18;36.07;;;29.10;;
